KLAN

Capital Region International Airport

Lansing, Michigan, USA
METAR KLAN 271153Z 00000KT 7SM CLR 21/19 A2991 RMK AO2 SLP121 T02060189 10206 20161 53023
Observed Flight Rules
May-27 @ 11:53 UTC (11 minutes ago) Visual Flight Rules
Visibility Clouds
7 miles
  • Clear skies
Temperatures Readings
Current 21°C / 70°F
Dewpoint 19°C / 66°F
Humidity 88%
Altimeter 29.91" Hg
Pressure 1012.1 hPa
Elevation 264
METAR KLAN 271153Z 00000KT 7SM CLR 21/19 A2991 RMK AO2 SLP121 T02060189 10206 20161 53023
Observed Flight Rules
May-27 @ 11:53 UTC
(11 minutes ago)
VFR
Clouds
  • Clear skies
Temperature Dewpoint
21°C / 70°F 19°C / 66°F
Humidity Altimeter Pressure
88% 29.91" Hg 1012.1 hPa